sensor_id;sensor_type;location;lat;lon;timestamp;P1;durP1;ratioP1;P2;durP2;ratioP2
24715;SDS011;12822;50.124;8.678;2023-06-26T00:01:16;10.55;;;7.60;;
24715;SDS011;12822;50.124;8.678;2023-06-26T00:03:46;10.00;;;7.18;;
24715;SDS011;12822;50.124;8.678;2023-06-26T00:06:12;9.13;;;7.38;;
24715;SDS011;12822;50.124;8.678;2023-06-26T00:08:38;11.93;;;7.97;;
24715;SDS011;12822;50.124;8.678;2023-06-26T00:11:04;10.57;;;7.60;;
24715;SDS011;12822;50.124;8.678;2023-06-26T00:13:30;13.43;;;8.27;;
24715;SDS011;12822;50.124;8.678;2023-06-26T00:15:56;10.35;;;8.10;;
24715;SDS011;12822;50.124;8.678;2023-06-26T00:18:22;10.95;;;7.95;;
24715;SDS011;12822;50.124;8.678;2023-06-26T00:20:48;11.00;;;8.20;;
24715;SDS011;12822;50.124;8.678;2023-06-26T00:23:16;11.20;;;7.65;;
24715;SDS011;12822;50.124;8.678;2023-06-26T00:25:42;9.43;;;7.65;;
24715;SDS011;12822;50.124;8.678;2023-06-26T00:28:08;8.45;;;7.30;;
24715;SDS011;12822;50.124;8.678;2023-06-26T00:30:34;9.38;;;7.22;;
24715;SDS011;12822;50.124;8.678;2023-06-26T00:33:00;10.38;;;7.50;;
24715;SDS011;12822;50.124;8.678;2023-06-26T00:35:26;11.32;;;7.35;;
24715;SDS011;12822;50.124;8.678;2023-06-26T00:37:52;10.60;;;7.35;;
24715;SDS011;12822;50.124;8.678;2023-06-26T00:40:18;9.98;;;7.18;;
24715;SDS011;12822;50.124;8.678;2023-06-26T00:42:44;9.75;;;7.65;;
24715;SDS011;12822;50.124;8.678;2023-06-26T00:45:10;12.43;;;8.18;;
24715;SDS011;12822;50.124;8.678;2023-06-26T00:47:36;9.45;;;7.82;;
24715;SDS011;12822;50.124;8.678;2023-06-26T00:50:03;11.55;;;7.93;;
24715;SDS011;12822;50.124;8.678;2023-06-26T00:52:29;10.18;;;7.47;;
24715;SDS011;12822;50.124;8.678;2023-06-26T00:54:56;9.05;;;7.20;;
24715;SDS011;12822;50.124;8.678;2023-06-26T00:57:22;9.77;;;7.68;;
24715;SDS011;12822;50.124;8.678;2023-06-26T00:59:48;9.07;;;7.35;;
24715;SDS011;12822;50.124;8.678;2023-06-26T01:02:14;9.95;;;7.22;;
24715;SDS011;12822;50.124;8.678;2023-06-26T01:04:42;11.05;;;7.72;;
24715;SDS011;12822;50.124;8.678;2023-06-26T01:07:11;10.75;;;7.97;;
24715;SDS011;12822;50.124;8.678;2023-06-26T01:09:38;10.80;;;7.93;;
24715;SDS011;12822;50.124;8.678;2023-06-26T01:12:04;10.00;;;7.88;;
24715;SDS011;12822;50.124;8.678;2023-06-26T01:14:30;9.50;;;8.18;;
24715;SDS011;12822;50.124;8.678;2023-06-26T01:16:57;12.93;;;8.55;;
24715;SDS011;12822;50.124;8.678;2023-06-26T01:19:24;11.43;;;8.35;;
24715;SDS011;12822;50.124;8.678;2023-06-26T01:21:54;9.98;;;8.20;;
24715;SDS011;12822;50.124;8.678;2023-06-26T01:24:22;11.82;;;9.55;;
24715;SDS011;12822;50.124;8.678;2023-06-26T01:26:52;11.82;;;8.25;;
24715;SDS011;12822;50.124;8.678;2023-06-26T01:29:19;11.13;;;8.48;;
24715;SDS011;12822;50.124;8.678;2023-06-26T01:31:45;10.50;;;8.18;;
24715;SDS011;12822;50.124;8.678;2023-06-26T01:34:14;9.68;;;8.65;;
24715;SDS011;12822;50.124;8.678;2023-06-26T01:36:40;14.63;;;9.07;;
24715;SDS011;12822;50.124;8.678;2023-06-26T01:39:06;12.70;;;9.05;;
24715;SDS011;12822;50.124;8.678;2023-06-26T01:41:33;11.55;;;8.80;;
24715;SDS011;12822;50.124;8.678;2023-06-26T01:54:33;11.23;;;8.93;;
24715;SDS011;12822;50.124;8.678;2023-06-26T01:57:00;10.77;;;8.50;;
24715;SDS011;12822;50.124;8.678;2023-06-26T01:59:27;10.98;;;8.63;;
24715;SDS011;12822;50.124;8.678;2023-06-26T02:01:54;11.13;;;8.82;;
24715;SDS011;12822;50.124;8.678;2023-06-26T02:04:20;10.88;;;9.00;;
24715;SDS011;12822;50.124;8.678;2023-06-26T02:06:46;12.38;;;9.10;;
24715;SDS011;12822;50.124;8.678;2023-06-26T02:09:12;12.18;;;8.57;;
24715;SDS011;12822;50.124;8.678;2023-06-26T02:11:38;15.93;;;8.65;;
24715;SDS011;12822;50.124;8.678;2023-06-26T02:14:04;10.95;;;9.10;;
24715;SDS011;12822;50.124;8.678;2023-06-26T02:16:30;14.07;;;8.90;;
24715;SDS011;12822;50.124;8.678;2023-06-26T02:18:58;13.88;;;9.57;;
24715;SDS011;12822;50.124;8.678;2023-06-26T02:21:24;15.63;;;9.50;;
24715;SDS011;12822;50.124;8.678;2023-06-26T02:23:50;11.70;;;8.48;;
24715;SDS011;12822;50.124;8.678;2023-06-26T02:26:16;10.32;;;8.45;;
24715;SDS011;12822;50.124;8.678;2023-06-26T02:28:43;12.98;;;8.95;;
24715;SDS011;12822;50.124;8.678;2023-06-26T02:31:09;10.68;;;8.32;;
24715;SDS011;12822;50.124;8.678;2023-06-26T02:33:35;11.65;;;9.95;;
24715;SDS011;12822;50.124;8.678;2023-06-26T02:36:01;11.25;;;8.98;;
24715;SDS011;12822;50.124;8.678;2023-06-26T02:38:27;12.45;;;9.13;;
24715;SDS011;12822;50.124;8.678;2023-06-26T02:40:53;12.63;;;8.88;;
24715;SDS011;12822;50.124;8.678;2023-06-26T02:43:19;13.98;;;8.60;;
24715;SDS011;12822;50.124;8.678;2023-06-26T02:45:45;12.73;;;8.23;;
24715;SDS011;12822;50.124;8.678;2023-06-26T02:48:10;12.73;;;9.52;;
24715;SDS011;12822;50.124;8.678;2023-06-26T02:50:36;12.27;;;9.43;;
24715;SDS011;12822;50.124;8.678;2023-06-26T02:53:02;12.98;;;8.93;;
24715;SDS011;12822;50.124;8.678;2023-06-26T02:55:28;11.23;;;8.40;;
24715;SDS011;12822;50.124;8.678;2023-06-26T02:57:54;12.73;;;8.90;;
24715;SDS011;12822;50.124;8.678;2023-06-26T03:00:20;12.52;;;9.32;;
24715;SDS011;12822;50.124;8.678;2023-06-26T03:02:47;12.30;;;8.82;;
24715;SDS011;12822;50.124;8.678;2023-06-26T03:05:12;11.05;;;8.52;;
24715;SDS011;12822;50.124;8.678;2023-06-26T03:07:38;11.40;;;8.50;;
24715;SDS011;12822;50.124;8.678;2023-06-26T03:10:05;9.50;;;8.10;;
24715;SDS011;12822;50.124;8.678;2023-06-26T03:12:31;10.05;;;8.57;;
24715;SDS011;12822;50.124;8.678;2023-06-26T03:14:57;11.77;;;9.02;;
24715;SDS011;12822;50.124;8.678;2023-06-26T03:17:23;10.90;;;8.57;;
24715;SDS011;12822;50.124;8.678;2023-06-26T03:19:49;10.32;;;8.35;;
24715;SDS011;12822;50.124;8.678;2023-06-26T03:22:15;11.77;;;8.75;;
24715;SDS011;12822;50.124;8.678;2023-06-26T03:24:41;10.82;;;8.43;;
24715;SDS011;12822;50.124;8.678;2023-06-26T03:27:07;12.52;;;9.40;;
24715;SDS011;12822;50.124;8.678;2023-06-26T03:29:34;14.18;;;10.20;;
24715;SDS011;12822;50.124;8.678;2023-06-26T03:32:00;13.00;;;9.70;;
24715;SDS011;12822;50.124;8.678;2023-06-26T03:34:26;15.88;;;9.50;;
24715;SDS011;12822;50.124;8.678;2023-06-26T03:36:52;14.18;;;10.32;;
24715;SDS011;12822;50.124;8.678;2023-06-26T03:39:18;14.63;;;10.38;;
24715;SDS011;12822;50.124;8.678;2023-06-26T03:41:44;14.77;;;10.25;;
24715;SDS011;12822;50.124;8.678;2023-06-26T03:44:11;13.77;;;10.02;;
24715;SDS011;12822;50.124;8.678;2023-06-26T03:46:37;17.00;;;9.55;;
24715;SDS011;12822;50.124;8.678;2023-06-26T03:49:03;13.93;;;9.73;;
24715;SDS011;12822;50.124;8.678;2023-06-26T03:51:29;12.65;;;9.07;;
24715;SDS011;12822;50.124;8.678;2023-06-26T03:53:55;12.13;;;9.57;;
24715;SDS011;12822;50.124;8.678;2023-06-26T03:56:21;11.80;;;9.73;;
24715;SDS011;12822;50.124;8.678;2023-06-26T03:58:47;14.88;;;10.40;;
24715;SDS011;12822;50.124;8.678;2023-06-26T04:01:13;16.98;;;9.35;;
24715;SDS011;12822;50.124;8.678;2023-06-26T04:03:39;13.60;;;9.65;;
24715;SDS011;12822;50.124;8.678;2023-06-26T04:06:05;17.48;;;10.73;;
24715;SDS011;12822;50.124;8.678;2023-06-26T04:08:31;18.30;;;10.95;;
24715;SDS011;12822;50.124;8.678;2023-06-26T04:10:57;17.58;;;11.00;;
24715;SDS011;12822;50.124;8.678;2023-06-26T04:13:23;14.38;;;9.50;;
24715;SDS011;12822;50.124;8.678;2023-06-26T04:15:49;19.33;;;10.77;;
24715;SDS011;12822;50.124;8.678;2023-06-26T04:18:15;12.98;;;10.57;;
24715;SDS011;12822;50.124;8.678;2023-06-26T04:21:03;13.50;;;10.40;;
24715;SDS011;12822;50.124;8.678;2023-06-26T04:23:27;20.90;;;10.93;;
24715;SDS011;12822;50.124;8.678;2023-06-26T04:25:53;14.45;;;9.75;;
24715;SDS011;12822;50.124;8.678;2023-06-26T04:28:19;16.45;;;10.15;;
24715;SDS011;12822;50.124;8.678;2023-06-26T04:30:45;13.95;;;9.63;;
24715;SDS011;12822;50.124;8.678;2023-06-26T04:33:11;13.93;;;9.88;;
24715;SDS011;12822;50.124;8.678;2023-06-26T04:35:37;15.35;;;9.90;;
24715;SDS011;12822;50.124;8.678;2023-06-26T04:38:06;18.15;;;11.05;;
24715;SDS011;12822;50.124;8.678;2023-06-26T04:40:34;15.20;;;9.90;;
24715;SDS011;12822;50.124;8.678;2023-06-26T04:43:00;15.75;;;9.60;;
24715;SDS011;12822;50.124;8.678;2023-06-26T04:45:28;15.50;;;10.43;;
24715;SDS011;12822;50.124;8.678;2023-06-26T04:47:54;16.67;;;10.50;;
24715;SDS011;12822;50.124;8.678;2023-06-26T04:50:21;16.02;;;9.90;;
24715;SDS011;12822;50.124;8.678;2023-06-26T04:52:50;16.90;;;10.07;;
24715;SDS011;12822;50.124;8.678;2023-06-26T04:55:16;26.92;;;10.50;;
24715;SDS011;12822;50.124;8.678;2023-06-26T04:57:42;21.20;;;9.75;;
24715;SDS011;12822;50.124;8.678;2023-06-26T05:00:08;20.30;;;10.35;;
24715;SDS011;12822;50.124;8.678;2023-06-26T05:02:36;23.15;;;10.32;;
24715;SDS011;12822;50.124;8.678;2023-06-26T05:05:02;24.00;;;11.00;;
24715;SDS011;12822;50.124;8.678;2023-06-26T05:07:28;23.25;;;11.00;;
24715;SDS011;12822;50.124;8.678;2023-06-26T05:09:56;19.17;;;9.73;;
24715;SDS011;12822;50.124;8.678;2023-06-26T05:12:22;18.55;;;9.85;;
24715;SDS011;12822;50.124;8.678;2023-06-26T05:14:48;17.52;;;9.98;;
24715;SDS011;12822;50.124;8.678;2023-06-26T05:17:14;17.38;;;9.27;;
24715;SDS011;12822;50.124;8.678;2023-06-26T05:19:40;11.70;;;8.30;;
24715;SDS011;12822;50.124;8.678;2023-06-26T05:22:06;16.95;;;8.55;;
24715;SDS011;12822;50.124;8.678;2023-06-26T05:24:35;14.95;;;8.38;;
24715;SDS011;12822;50.124;8.678;2023-06-26T05:27:02;11.30;;;8.73;;
24715;SDS011;12822;50.124;8.678;2023-06-26T05:29:30;11.45;;;8.70;;
24715;SDS011;12822;50.124;8.678;2023-06-26T05:31:56;11.98;;;8.30;;
24715;SDS011;12822;50.124;8.678;2023-06-26T05:34:22;13.93;;;8.02;;
24715;SDS011;12822;50.124;8.678;2023-06-26T05:36:50;15.98;;;7.85;;
24715;SDS011;12822;50.124;8.678;2023-06-26T05:39:16;11.00;;;8.38;;
24715;SDS011;12822;50.124;8.678;2023-06-26T05:41:46;14.70;;;8.32;;
24715;SDS011;12822;50.124;8.678;2023-06-26T05:44:12;10.43;;;8.25;;
24715;SDS011;12822;50.124;8.678;2023-06-26T05:46:38;10.48;;;8.35;;
24715;SDS011;12822;50.124;8.678;2023-06-26T05:49:04;9.77;;;7.95;;
24715;SDS011;12822;50.124;8.678;2023-06-26T05:51:30;12.02;;;8.60;;
24715;SDS011;12822;50.124;8.678;2023-06-26T05:53:56;10.77;;;8.15;;
24715;SDS011;12822;50.124;8.678;2023-06-26T05:56:22;11.98;;;8.35;;
24715;SDS011;12822;50.124;8.678;2023-06-26T05:58:49;12.75;;;9.18;;
24715;SDS011;12822;50.124;8.678;2023-06-26T06:01:15;12.82;;;8.27;;
24715;SDS011;12822;50.124;8.678;2023-06-26T06:03:41;12.65;;;9.25;;
24715;SDS011;12822;50.124;8.678;2023-06-26T06:06:07;11.40;;;7.68;;
24715;SDS011;12822;50.124;8.678;2023-06-26T06:08:33;14.02;;;8.90;;
24715;SDS011;12822;50.124;8.678;2023-06-26T06:10:59;14.80;;;9.30;;
24715;SDS011;12822;50.124;8.678;2023-06-26T06:13:26;12.35;;;9.07;;
24715;SDS011;12822;50.124;8.678;2023-06-26T06:15:53;16.58;;;8.93;;
24715;SDS011;12822;50.124;8.678;2023-06-26T06:18:20;18.77;;;9.82;;
24715;SDS011;12822;50.124;8.678;2023-06-26T06:20:46;17.00;;;9.55;;
24715;SDS011;12822;50.124;8.678;2023-06-26T06:23:12;13.43;;;9.27;;
24715;SDS011;12822;50.124;8.678;2023-06-26T06:25:38;13.40;;;8.77;;
24715;SDS011;12822;50.124;8.678;2023-06-26T06:28:04;14.30;;;9.48;;
24715;SDS011;12822;50.124;8.678;2023-06-26T06:30:31;12.02;;;8.82;;
24715;SDS011;12822;50.124;8.678;2023-06-26T06:32:59;18.25;;;8.88;;
24715;SDS011;12822;50.124;8.678;2023-06-26T06:35:25;12.40;;;9.02;;
24715;SDS011;12822;50.124;8.678;2023-06-26T06:37:51;13.07;;;9.55;;
24715;SDS011;12822;50.124;8.678;2023-06-26T06:40:17;12.43;;;8.63;;
24715;SDS011;12822;50.124;8.678;2023-06-26T06:42:43;12.63;;;9.05;;
24715;SDS011;12822;50.124;8.678;2023-06-26T06:45:10;12.80;;;8.98;;
24715;SDS011;12822;50.124;8.678;2023-06-26T06:47:35;11.50;;;8.20;;
24715;SDS011;12822;50.124;8.678;2023-06-26T06:50:02;12.10;;;8.25;;
24715;SDS011;12822;50.124;8.678;2023-06-26T06:52:36;15.23;;;8.23;;
24715;SDS011;12822;50.124;8.678;2023-06-26T06:55:03;11.25;;;8.25;;
24715;SDS011;12822;50.124;8.678;2023-06-26T06:57:34;12.45;;;7.88;;
24715;SDS011;12822;50.124;8.678;2023-06-26T07:00:03;14.10;;;7.95;;
24715;SDS011;12822;50.124;8.678;2023-06-26T07:02:29;20.65;;;8.60;;
24715;SDS011;12822;50.124;8.678;2023-06-26T07:04:55;11.07;;;7.60;;
24715;SDS011;12822;50.124;8.678;2023-06-26T07:07:22;15.02;;;8.35;;
24715;SDS011;12822;50.124;8.678;2023-06-26T07:09:47;13.85;;;7.68;;
24715;SDS011;12822;50.124;8.678;2023-06-26T07:12:13;10.82;;;7.30;;
24715;SDS011;12822;50.124;8.678;2023-06-26T07:14:39;13.75;;;7.82;;
24715;SDS011;12822;50.124;8.678;2023-06-26T07:17:05;10.93;;;8.30;;
24715;SDS011;12822;50.124;8.678;2023-06-26T07:19:31;11.82;;;7.85;;
24715;SDS011;12822;50.124;8.678;2023-06-26T07:22:00;16.27;;;8.10;;
24715;SDS011;12822;50.124;8.678;2023-06-26T07:24:26;15.60;;;7.90;;
24715;SDS011;12822;50.124;8.678;2023-06-26T07:26:54;10.57;;;7.50;;
24715;SDS011;12822;50.124;8.678;2023-06-26T07:29:23;16.50;;;7.38;;
24715;SDS011;12822;50.124;8.678;2023-06-26T07:31:49;15.32;;;8.15;;
24715;SDS011;12822;50.124;8.678;2023-06-26T07:34:15;20.73;;;7.60;;
24715;SDS011;12822;50.124;8.678;2023-06-26T07:36:41;15.27;;;8.40;;
24715;SDS011;12822;50.124;8.678;2023-06-26T07:39:07;13.45;;;7.60;;
24715;SDS011;12822;50.124;8.678;2023-06-26T07:41:33;15.98;;;8.43;;
24715;SDS011;12822;50.124;8.678;2023-06-26T07:43:59;13.00;;;8.63;;
24715;SDS011;12822;50.124;8.678;2023-06-26T07:46:25;12.73;;;8.00;;
24715;SDS011;12822;50.124;8.678;2023-06-26T07:48:51;14.40;;;7.88;;
24715;SDS011;12822;50.124;8.678;2023-06-26T07:51:17;11.32;;;8.23;;
24715;SDS011;12822;50.124;8.678;2023-06-26T07:53:43;16.25;;;7.43;;
24715;SDS011;12822;50.124;8.678;2023-06-26T07:56:09;14.32;;;7.60;;
24715;SDS011;12822;50.124;8.678;2023-06-26T07:58:35;10.23;;;7.35;;
24715;SDS011;12822;50.124;8.678;2023-06-26T08:01:01;11.57;;;7.18;;
24715;SDS011;12822;50.124;8.678;2023-06-26T08:03:27;12.13;;;7.55;;
24715;SDS011;12822;50.124;8.678;2023-06-26T08:05:53;10.32;;;6.93;;
24715;SDS011;12822;50.124;8.678;2023-06-26T08:08:19;9.77;;;7.57;;
24715;SDS011;12822;50.124;8.678;2023-06-26T08:10:45;10.52;;;7.78;;
24715;SDS011;12822;50.124;8.678;2023-06-26T08:13:11;9.90;;;7.25;;
24715;SDS011;12822;50.124;8.678;2023-06-26T08:15:37;9.35;;;6.50;;
24715;SDS011;12822;50.124;8.678;2023-06-26T08:18:04;9.27;;;6.93;;
24715;SDS011;12822;50.124;8.678;2023-06-26T08:20:30;10.50;;;6.78;;
24715;SDS011;12822;50.124;8.678;2023-06-26T08:22:56;16.70;;;7.32;;
24715;SDS011;12822;50.124;8.678;2023-06-26T08:25:22;10.80;;;6.55;;
24715;SDS011;12822;50.124;8.678;2023-06-26T08:27:48;10.27;;;6.43;;
24715;SDS011;12822;50.124;8.678;2023-06-26T08:30:17;8.07;;;6.80;;
24715;SDS011;12822;50.124;8.678;2023-06-26T08:32:43;11.18;;;6.53;;
24715;SDS011;12822;50.124;8.678;2023-06-26T08:35:09;9.50;;;7.00;;
24715;SDS011;12822;50.124;8.678;2023-06-26T08:37:35;9.07;;;6.13;;
24715;SDS011;12822;50.124;8.678;2023-06-26T08:40:01;9.50;;;6.63;;
24715;SDS011;12822;50.124;8.678;2023-06-26T08:42:29;8.15;;;6.85;;
24715;SDS011;12822;50.124;8.678;2023-06-26T08:44:55;7.63;;;6.60;;
24715;SDS011;12822;50.124;8.678;2023-06-26T08:47:21;10.35;;;6.30;;
24715;SDS011;12822;50.124;8.678;2023-06-26T08:52:46;10.63;;;6.80;;
24715;SDS011;12822;50.124;8.678;2023-06-26T08:55:15;13.35;;;6.32;;
24715;SDS011;12822;50.124;8.678;2023-06-26T08:57:42;14.35;;;6.55;;
24715;SDS011;12822;50.124;8.678;2023-06-26T09:00:08;7.70;;;6.32;;
24715;SDS011;12822;50.124;8.678;2023-06-26T09:02:35;12.95;;;6.55;;
24715;SDS011;12822;50.124;8.678;2023-06-26T09:05:02;10.05;;;6.93;;
24715;SDS011;12822;50.124;8.678;2023-06-26T09:07:28;12.85;;;6.13;;
24715;SDS011;12822;50.124;8.678;2023-06-26T09:09:54;12.32;;;6.10;;
24715;SDS011;12822;50.124;8.678;2023-06-26T09:12:20;9.10;;;6.15;;
24715;SDS011;12822;50.124;8.678;2023-06-26T09:14:47;14.90;;;6.32;;
24715;SDS011;12822;50.124;8.678;2023-06-26T09:17:13;11.90;;;6.53;;
24715;SDS011;12822;50.124;8.678;2023-06-26T09:19:39;15.73;;;6.85;;
24715;SDS011;12822;50.124;8.678;2023-06-26T09:22:10;6.75;;;5.40;;
24715;SDS011;12822;50.124;8.678;2023-06-26T09:24:36;10.07;;;6.10;;
24715;SDS011;12822;50.124;8.678;2023-06-26T09:27:02;6.43;;;5.75;;
24715;SDS011;12822;50.124;8.678;2023-06-26T09:29:28;9.82;;;5.32;;
24715;SDS011;12822;50.124;8.678;2023-06-26T09:31:55;7.25;;;5.68;;
24715;SDS011;12822;50.124;8.678;2023-06-26T09:34:23;8.90;;;5.38;;
24715;SDS011;12822;50.124;8.678;2023-06-26T09:36:55;7.10;;;5.20;;
24715;SDS011;12822;50.124;8.678;2023-06-26T09:39:21;8.13;;;5.00;;
24715;SDS011;12822;50.124;8.678;2023-06-26T09:41:47;5.72;;;5.07;;
24715;SDS011;12822;50.124;8.678;2023-06-26T09:44:13;6.30;;;4.90;;
24715;SDS011;12822;50.124;8.678;2023-06-26T09:46:40;5.18;;;4.68;;
24715;SDS011;12822;50.124;8.678;2023-06-26T09:51:35;7.30;;;5.28;;
24715;SDS011;12822;50.124;8.678;2023-06-26T09:54:02;7.95;;;4.90;;
24715;SDS011;12822;50.124;8.678;2023-06-26T09:56:28;5.20;;;4.70;;
24715;SDS011;12822;50.124;8.678;2023-06-26T09:58:58;8.02;;;4.75;;
24715;SDS011;12822;50.124;8.678;2023-06-26T10:01:25;8.90;;;5.05;;
24715;SDS011;12822;50.124;8.678;2023-06-26T10:03:51;6.60;;;4.65;;
24715;SDS011;12822;50.124;8.678;2023-06-26T10:06:19;7.65;;;4.97;;
24715;SDS011;12822;50.124;8.678;2023-06-26T10:08:45;11.02;;;5.50;;
24715;SDS011;12822;50.124;8.678;2023-06-26T10:11:11;7.50;;;4.95;;
24715;SDS011;12822;50.124;8.678;2023-06-26T10:13:40;8.02;;;5.90;;
24715;SDS011;12822;50.124;8.678;2023-06-26T10:16:11;5.05;;;4.53;;
24715;SDS011;12822;50.124;8.678;2023-06-26T10:18:38;8.23;;;6.00;;
24715;SDS011;12822;50.124;8.678;2023-06-26T10:21:04;11.45;;;5.85;;
24715;SDS011;12822;50.124;8.678;2023-06-26T10:23:34;5.60;;;4.78;;
24715;SDS011;12822;50.124;8.678;2023-06-26T10:26:00;5.53;;;5.03;;
24715;SDS011;12822;50.124;8.678;2023-06-26T10:28:26;8.43;;;5.40;;
24715;SDS011;12822;50.124;8.678;2023-06-26T10:30:54;5.47;;;4.95;;
24715;SDS011;12822;50.124;8.678;2023-06-26T10:33:21;8.00;;;5.18;;
24715;SDS011;12822;50.124;8.678;2023-06-26T10:35:47;10.05;;;5.88;;
24715;SDS011;12822;50.124;8.678;2023-06-26T10:38:14;10.05;;;5.13;;
24715;SDS011;12822;50.124;8.678;2023-06-26T10:40:44;7.85;;;4.80;;
24715;SDS011;12822;50.124;8.678;2023-06-26T10:43:11;6.85;;;5.40;;
24715;SDS011;12822;50.124;8.678;2023-06-26T10:45:43;7.88;;;4.50;;
24715;SDS011;12822;50.124;8.678;2023-06-26T10:48:09;9.43;;;5.82;;
24715;SDS011;12822;50.124;8.678;2023-06-26T10:50:35;7.20;;;5.18;;
24715;SDS011;12822;50.124;8.678;2023-06-26T10:53:09;7.38;;;4.75;;
24715;SDS011;12822;50.124;8.678;2023-06-26T10:55:41;5.70;;;4.55;;
24715;SDS011;12822;50.124;8.678;2023-06-26T11:00:58;5.25;;;4.25;;
24715;SDS011;12822;50.124;8.678;2023-06-26T11:03:40;7.57;;;5.63;;
24715;SDS011;12822;50.124;8.678;2023-06-26T11:06:18;7.07;;;5.10;;
24715;SDS011;12822;50.124;8.678;2023-06-26T11:08:49;6.25;;;4.78;;
24715;SDS011;12822;50.124;8.678;2023-06-26T11:11:15;6.30;;;5.55;;
24715;SDS011;12822;50.124;8.678;2023-06-26T11:13:42;6.00;;;4.90;;
24715;SDS011;12822;50.124;8.678;2023-06-26T11:16:08;4.22;;;3.67;;
24715;SDS011;12822;50.124;8.678;2023-06-26T11:18:34;7.75;;;4.20;;
24715;SDS011;12822;50.124;8.678;2023-06-26T11:21:04;6.07;;;3.65;;
24715;SDS011;12822;50.124;8.678;2023-06-26T11:23:30;5.50;;;4.75;;
24715;SDS011;12822;50.124;8.678;2023-06-26T11:25:58;6.75;;;3.92;;
24715;SDS011;12822;50.124;8.678;2023-06-26T11:28:38;7.40;;;4.30;;
24715;SDS011;12822;50.124;8.678;2023-06-26T11:31:04;4.38;;;3.97;;
24715;SDS011;12822;50.124;8.678;2023-06-26T11:33:30;6.30;;;4.55;;
24715;SDS011;12822;50.124;8.678;2023-06-26T11:36:07;9.13;;;4.45;;
24715;SDS011;12822;50.124;8.678;2023-06-26T11:38:39;5.53;;;4.53;;
24715;SDS011;12822;50.124;8.678;2023-06-26T11:41:05;5.65;;;3.80;;
24715;SDS011;12822;50.124;8.678;2023-06-26T11:43:33;5.63;;;4.53;;
24715;SDS011;12822;50.124;8.678;2023-06-26T11:45:59;5.28;;;4.20;;
24715;SDS011;12822;50.124;8.678;2023-06-26T11:48:25;4.72;;;4.32;;
24715;SDS011;12822;50.124;8.678;2023-06-26T11:50:51;5.47;;;4.05;;
24715;SDS011;12822;50.124;8.678;2023-06-26T11:53:17;6.93;;;4.47;;
24715;SDS011;12822;50.124;8.678;2023-06-26T11:55:44;4.93;;;3.58;;
24715;SDS011;12822;50.124;8.678;2023-06-26T11:58:10;5.93;;;4.00;;
24715;SDS011;12822;50.124;8.678;2023-06-26T12:00:40;5.10;;;3.97;;
24715;SDS011;12822;50.124;8.678;2023-06-26T12:03:07;10.35;;;4.20;;
24715;SDS011;12822;50.124;8.678;2023-06-26T12:05:33;7.13;;;3.80;;
24715;SDS011;12822;50.124;8.678;2023-06-26T12:07:59;6.50;;;4.15;;
24715;SDS011;12822;50.124;8.678;2023-06-26T12:10:26;5.82;;;4.05;;
24715;SDS011;12822;50.124;8.678;2023-06-26T12:12:53;6.20;;;4.30;;
24715;SDS011;12822;50.124;8.678;2023-06-26T12:15:23;5.25;;;4.43;;
24715;SDS011;12822;50.124;8.678;2023-06-26T12:17:49;7.28;;;3.92;;
24715;SDS011;12822;50.124;8.678;2023-06-26T12:20:19;6.05;;;3.85;;
24715;SDS011;12822;50.124;8.678;2023-06-26T12:22:46;9.32;;;4.65;;
24715;SDS011;12822;50.124;8.678;2023-06-26T12:25:13;9.18;;;4.57;;
24715;SDS011;12822;50.124;8.678;2023-06-26T12:27:40;6.15;;;4.80;;
24715;SDS011;12822;50.124;8.678;2023-06-26T12:30:06;7.80;;;5.30;;
24715;SDS011;12822;50.124;8.678;2023-06-26T12:32:34;8.00;;;4.78;;
24715;SDS011;12822;50.124;8.678;2023-06-26T12:35:00;7.75;;;4.47;;
24715;SDS011;12822;50.124;8.678;2023-06-26T12:37:26;10.50;;;4.75;;
24715;SDS011;12822;50.124;8.678;2023-06-26T12:39:56;6.97;;;4.65;;
24715;SDS011;12822;50.124;8.678;2023-06-26T12:42:26;6.90;;;4.63;;
24715;SDS011;12822;50.124;8.678;2023-06-26T12:44:53;10.20;;;4.82;;
24715;SDS011;12822;50.124;8.678;2023-06-26T12:47:26;6.88;;;4.60;;
24715;SDS011;12822;50.124;8.678;2023-06-26T12:49:52;6.75;;;4.43;;
24715;SDS011;12822;50.124;8.678;2023-06-26T12:52:18;7.30;;;4.43;;
24715;SDS011;12822;50.124;8.678;2023-06-26T12:54:45;8.27;;;4.75;;
24715;SDS011;12822;50.124;8.678;2023-06-26T12:57:12;7.30;;;4.53;;
24715;SDS011;12822;50.124;8.678;2023-06-26T12:59:39;6.68;;;4.22;;
24715;SDS011;12822;50.124;8.678;2023-06-26T13:02:05;9.73;;;5.15;;
24715;SDS011;12822;50.124;8.678;2023-06-26T13:04:32;9.82;;;4.85;;
24715;SDS011;12822;50.124;8.678;2023-06-26T13:06:58;6.00;;;3.88;;
24715;SDS011;12822;50.124;8.678;2023-06-26T13:09:27;7.75;;;4.93;;
24715;SDS011;12822;50.124;8.678;2023-06-26T13:11:53;10.07;;;5.35;;
24715;SDS011;12822;50.124;8.678;2023-06-26T13:14:19;7.32;;;4.50;;
24715;SDS011;12822;50.124;8.678;2023-06-26T13:16:46;6.03;;;4.00;;
24715;SDS011;12822;50.124;8.678;2023-06-26T13:19:12;11.43;;;4.75;;
24715;SDS011;12822;50.124;8.678;2023-06-26T13:21:38;7.72;;;4.55;;
24715;SDS011;12822;50.124;8.678;2023-06-26T13:24:04;7.60;;;4.45;;
24715;SDS011;12822;50.124;8.678;2023-06-26T13:26:31;12.07;;;4.68;;
24715;SDS011;12822;50.124;8.678;2023-06-26T13:28:57;7.03;;;4.45;;
24715;SDS011;12822;50.124;8.678;2023-06-26T13:31:23;7.60;;;4.68;;
24715;SDS011;12822;50.124;8.678;2023-06-26T13:33:49;10.88;;;4.88;;
24715;SDS011;12822;50.124;8.678;2023-06-26T13:36:16;10.90;;;4.45;;
24715;SDS011;12822;50.124;8.678;2023-06-26T13:38:42;10.48;;;4.32;;
24715;SDS011;12822;50.124;8.678;2023-06-26T13:41:08;6.88;;;4.32;;
24715;SDS011;12822;50.124;8.678;2023-06-26T13:43:34;7.78;;;4.07;;
24715;SDS011;12822;50.124;8.678;2023-06-26T13:46:00;10.18;;;4.43;;
24715;SDS011;12822;50.124;8.678;2023-06-26T13:48:26;9.07;;;4.18;;
24715;SDS011;12822;50.124;8.678;2023-06-26T13:50:52;9.32;;;3.83;;
24715;SDS011;12822;50.124;8.678;2023-06-26T13:53:18;7.53;;;4.20;;
24715;SDS011;12822;50.124;8.678;2023-06-26T13:55:44;6.50;;;4.18;;
24715;SDS011;12822;50.124;8.678;2023-06-26T13:58:10;12.18;;;3.85;;
24715;SDS011;12822;50.124;8.678;2023-06-26T14:00:38;8.90;;;3.78;;
24715;SDS011;12822;50.124;8.678;2023-06-26T14:03:05;6.40;;;3.55;;
24715;SDS011;12822;50.124;8.678;2023-06-26T14:05:34;9.52;;;3.47;;
24715;SDS011;12822;50.124;8.678;2023-06-26T14:08:04;9.98;;;3.47;;
24715;SDS011;12822;50.124;8.678;2023-06-26T14:10:30;6.78;;;3.03;;
24715;SDS011;12822;50.124;8.678;2023-06-26T14:12:58;7.10;;;3.40;;
24715;SDS011;12822;50.124;8.678;2023-06-26T14:15:24;7.82;;;2.90;;
24715;SDS011;12822;50.124;8.678;2023-06-26T14:17:50;9.50;;;3.55;;
24715;SDS011;12822;50.124;8.678;2023-06-26T14:20:17;6.75;;;3.25;;
24715;SDS011;12822;50.124;8.678;2023-06-26T14:22:44;8.40;;;3.25;;
24715;SDS011;12822;50.124;8.678;2023-06-26T14:25:10;5.78;;;2.92;;
24715;SDS011;12822;50.124;8.678;2023-06-26T14:27:37;6.28;;;3.30;;
24715;SDS011;12822;50.124;8.678;2023-06-26T14:30:04;6.07;;;2.88;;
24715;SDS011;12822;50.124;8.678;2023-06-26T14:32:30;10.15;;;3.00;;
24715;SDS011;12822;50.124;8.678;2023-06-26T14:34:56;7.03;;;2.60;;
24715;SDS011;12822;50.124;8.678;2023-06-26T14:37:22;8.00;;;2.75;;
24715;SDS011;12822;50.124;8.678;2023-06-26T14:39:49;6.30;;;3.17;;
24715;SDS011;12822;50.124;8.678;2023-06-26T14:42:15;10.65;;;3.63;;
24715;SDS011;12822;50.124;8.678;2023-06-26T14:44:41;6.50;;;2.58;;
24715;SDS011;12822;50.124;8.678;2023-06-26T14:47:07;10.77;;;3.03;;
24715;SDS011;12822;50.124;8.678;2023-06-26T14:49:33;9.35;;;2.53;;
24715;SDS011;12822;50.124;8.678;2023-06-26T14:51:59;5.63;;;2.60;;
24715;SDS011;12822;50.124;8.678;2023-06-26T14:54:25;7.80;;;2.47;;